sensor_id;sensor_type;location;lat;lon;timestamp;P1;durP1;ratioP1;P2;durP2;ratioP2
13849;SDS011;6995;52.618;13.488;2022-12-07T00:01:38;43.33;;;39.87;;
13849;SDS011;6995;52.618;13.488;2022-12-07T00:04:10;31.97;;;29.53;;
13849;SDS011;6995;52.618;13.488;2022-12-07T00:06:41;38.90;;;36.10;;
13849;SDS011;6995;52.618;13.488;2022-12-07T00:09:13;40.57;;;38.23;;
13849;SDS011;6995;52.618;13.488;2022-12-07T00:11:40;42.77;;;39.83;;
13849;SDS011;6995;52.618;13.488;2022-12-07T00:14:12;34.90;;;32.27;;
13849;SDS011;6995;52.618;13.488;2022-12-07T00:16:40;39.97;;;37.37;;
13849;SDS011;6995;52.618;13.488;2022-12-07T00:19:06;38.40;;;35.67;;
13849;SDS011;6995;52.618;13.488;2022-12-07T00:21:33;38.30;;;35.33;;
13849;SDS011;6995;52.618;13.488;2022-12-07T00:24:00;34.63;;;32.63;;
13849;SDS011;6995;52.618;13.488;2022-12-07T00:26:28;36.63;;;33.97;;
13849;SDS011;6995;52.618;13.488;2022-12-07T00:28:57;34.27;;;31.97;;
13849;SDS011;6995;52.618;13.488;2022-12-07T00:31:26;37.57;;;35.17;;
13849;SDS011;6995;52.618;13.488;2022-12-07T00:33:54;36.77;;;34.23;;
13849;SDS011;6995;52.618;13.488;2022-12-07T00:36:22;37.60;;;34.77;;
13849;SDS011;6995;52.618;13.488;2022-12-07T00:38:49;34.07;;;31.67;;
13849;SDS011;6995;52.618;13.488;2022-12-07T00:41:19;40.97;;;38.13;;
13849;SDS011;6995;52.618;13.488;2022-12-07T00:43:47;44.47;;;41.73;;
13849;SDS011;6995;52.618;13.488;2022-12-07T00:46:13;35.27;;;32.97;;
13849;SDS011;6995;52.618;13.488;2022-12-07T00:48:40;38.90;;;36.10;;
13849;SDS011;6995;52.618;13.488;2022-12-07T00:51:07;37.90;;;35.00;;
13849;SDS011;6995;52.618;13.488;2022-12-07T00:53:34;45.73;;;42.73;;
13849;SDS011;6995;52.618;13.488;2022-12-07T00:56:07;37.67;;;34.73;;
13849;SDS011;6995;52.618;13.488;2022-12-07T00:58:54;44.67;;;41.77;;
13849;SDS011;6995;52.618;13.488;2022-12-07T01:01:24;39.73;;;36.83;;
13849;SDS011;6995;52.618;13.488;2022-12-07T01:03:51;42.70;;;39.80;;
13849;SDS011;6995;52.618;13.488;2022-12-07T01:06:18;36.30;;;33.80;;
13849;SDS011;6995;52.618;13.488;2022-12-07T01:08:44;35.40;;;32.80;;
13849;SDS011;6995;52.618;13.488;2022-12-07T01:11:15;34.77;;;32.20;;
13849;SDS011;6995;52.618;13.488;2022-12-07T01:13:42;65.87;;;62.17;;
13849;SDS011;6995;52.618;13.488;2022-12-07T01:16:10;42.80;;;39.60;;
13849;SDS011;6995;52.618;13.488;2022-12-07T01:18:41;35.87;;;33.10;;
13849;SDS011;6995;52.618;13.488;2022-12-07T01:21:09;33.63;;;31.07;;
13849;SDS011;6995;52.618;13.488;2022-12-07T01:23:40;34.90;;;32.23;;
13849;SDS011;6995;52.618;13.488;2022-12-07T01:26:07;32.57;;;29.97;;
13849;SDS011;6995;52.618;13.488;2022-12-07T01:28:36;34.27;;;31.67;;
13849;SDS011;6995;52.618;13.488;2022-12-07T01:31:03;35.17;;;32.80;;
13849;SDS011;6995;52.618;13.488;2022-12-07T01:33:37;41.57;;;38.67;;
13849;SDS011;6995;52.618;13.488;2022-12-07T01:36:07;36.90;;;34.50;;
13849;SDS011;6995;52.618;13.488;2022-12-07T01:38:38;35.73;;;33.23;;
13849;SDS011;6995;52.618;13.488;2022-12-07T01:41:05;35.30;;;32.63;;
13849;SDS011;6995;52.618;13.488;2022-12-07T01:43:31;42.47;;;39.33;;
13849;SDS011;6995;52.618;13.488;2022-12-07T01:45:58;40.00;;;37.00;;
13849;SDS011;6995;52.618;13.488;2022-12-07T01:48:42;39.30;;;36.60;;
13849;SDS011;6995;52.618;13.488;2022-12-07T01:51:09;37.30;;;34.50;;
13849;SDS011;6995;52.618;13.488;2022-12-07T01:53:38;37.37;;;34.83;;
13849;SDS011;6995;52.618;13.488;2022-12-07T01:56:11;31.87;;;29.37;;
13849;SDS011;6995;52.618;13.488;2022-12-07T01:58:44;47.00;;;43.90;;
13849;SDS011;6995;52.618;13.488;2022-12-07T02:01:10;39.73;;;37.00;;
13849;SDS011;6995;52.618;13.488;2022-12-07T02:03:41;36.87;;;34.13;;
13849;SDS011;6995;52.618;13.488;2022-12-07T02:06:09;41.30;;;38.73;;
13849;SDS011;6995;52.618;13.488;2022-12-07T02:08:37;40.27;;;37.60;;
13849;SDS011;6995;52.618;13.488;2022-12-07T02:11:04;35.47;;;33.17;;
13849;SDS011;6995;52.618;13.488;2022-12-07T02:13:33;38.47;;;35.80;;
13849;SDS011;6995;52.618;13.488;2022-12-07T02:24:24;34.97;;;32.27;;
13849;SDS011;6995;52.618;13.488;2022-12-07T02:30:13;32.40;;;30.13;;
13849;SDS011;6995;52.618;13.488;2022-12-07T02:35:58;31.70;;;29.13;;
13849;SDS011;6995;52.618;13.488;2022-12-07T02:38:34;31.30;;;29.10;;
13849;SDS011;6995;52.618;13.488;2022-12-07T02:43:53;29.53;;;27.53;;
13849;SDS011;6995;52.618;13.488;2022-12-07T02:46:40;31.97;;;29.77;;
13849;SDS011;6995;52.618;13.488;2022-12-07T02:49:09;33.17;;;30.87;;
13849;SDS011;6995;52.618;13.488;2022-12-07T02:51:42;28.63;;;26.77;;
13849;SDS011;6995;52.618;13.488;2022-12-07T02:54:15;31.40;;;29.20;;
13849;SDS011;6995;52.618;13.488;2022-12-07T03:02:27;33.40;;;31.30;;
13849;SDS011;6995;52.618;13.488;2022-12-07T03:08:41;30.23;;;28.43;;
13849;SDS011;6995;52.618;13.488;2022-12-07T03:11:23;27.70;;;25.87;;
13849;SDS011;6995;52.618;13.488;2022-12-07T03:14:04;32.30;;;30.00;;
13849;SDS011;6995;52.618;13.488;2022-12-07T03:16:43;33.47;;;31.10;;
13849;SDS011;6995;52.618;13.488;2022-12-07T03:19:20;29.27;;;27.30;;
13849;SDS011;6995;52.618;13.488;2022-12-07T03:22:34;31.23;;;29.13;;
13849;SDS011;6995;52.618;13.488;2022-12-07T03:27:38;29.70;;;27.67;;
13849;SDS011;6995;52.618;13.488;2022-12-07T03:30:18;36.67;;;34.07;;
13849;SDS011;6995;52.618;13.488;2022-12-07T03:36:21;32.70;;;30.40;;
13849;SDS011;6995;52.618;13.488;2022-12-07T03:41:56;37.27;;;34.90;;
13849;SDS011;6995;52.618;13.488;2022-12-07T03:44:24;33.33;;;30.73;;
13849;SDS011;6995;52.618;13.488;2022-12-07T03:52:44;33.57;;;31.00;;
13849;SDS011;6995;52.618;13.488;2022-12-07T03:55:31;39.53;;;36.23;;
13849;SDS011;6995;52.618;13.488;2022-12-07T03:58:06;36.20;;;33.40;;
13849;SDS011;6995;52.618;13.488;2022-12-07T04:00:39;51.23;;;47.47;;
13849;SDS011;6995;52.618;13.488;2022-12-07T04:03:09;39.20;;;35.83;;
13849;SDS011;6995;52.618;13.488;2022-12-07T04:05:38;41.17;;;37.77;;
13849;SDS011;6995;52.618;13.488;2022-12-07T04:08:22;44.13;;;40.60;;
13849;SDS011;6995;52.618;13.488;2022-12-07T04:10:48;57.87;;;53.40;;
13849;SDS011;6995;52.618;13.488;2022-12-07T04:13:14;48.23;;;43.90;;
13849;SDS011;6995;52.618;13.488;2022-12-07T04:15:43;75.97;;;70.97;;
13849;SDS011;6995;52.618;13.488;2022-12-07T04:18:11;58.93;;;54.40;;
13849;SDS011;6995;52.618;13.488;2022-12-07T04:20:37;42.03;;;38.33;;
13849;SDS011;6995;52.618;13.488;2022-12-07T04:23:06;49.77;;;45.73;;
13849;SDS011;6995;52.618;13.488;2022-12-07T04:25:34;41.37;;;38.23;;
13849;SDS011;6995;52.618;13.488;2022-12-07T04:28:03;50.87;;;46.40;;
13849;SDS011;6995;52.618;13.488;2022-12-07T04:30:29;50.40;;;46.23;;
13849;SDS011;6995;52.618;13.488;2022-12-07T04:32:55;55.43;;;50.83;;
13849;SDS011;6995;52.618;13.488;2022-12-07T04:35:21;54.87;;;50.37;;
13849;SDS011;6995;52.618;13.488;2022-12-07T04:37:52;50.20;;;45.93;;
13849;SDS011;6995;52.618;13.488;2022-12-07T04:40:21;61.50;;;57.67;;
13849;SDS011;6995;52.618;13.488;2022-12-07T04:42:47;48.30;;;44.50;;
13849;SDS011;6995;52.618;13.488;2022-12-07T04:45:22;53.07;;;48.77;;
13849;SDS011;6995;52.618;13.488;2022-12-07T04:47:48;77.40;;;72.20;;
13849;SDS011;6995;52.618;13.488;2022-12-07T04:50:21;71.33;;;66.13;;
13849;SDS011;6995;52.618;13.488;2022-12-07T04:52:47;52.63;;;48.73;;
13849;SDS011;6995;52.618;13.488;2022-12-07T04:55:15;63.50;;;58.67;;
13849;SDS011;6995;52.618;13.488;2022-12-07T04:57:46;52.33;;;48.23;;
13849;SDS011;6995;52.618;13.488;2022-12-07T05:00:12;108.00;;;101.40;;
13849;SDS011;6995;52.618;13.488;2022-12-07T05:02:40;52.80;;;49.23;;
13849;SDS011;6995;52.618;13.488;2022-12-07T05:05:06;59.77;;;55.30;;
13849;SDS011;6995;52.618;13.488;2022-12-07T05:07:35;61.00;;;56.57;;
13849;SDS011;6995;52.618;13.488;2022-12-07T05:10:00;82.30;;;76.80;;
13849;SDS011;6995;52.618;13.488;2022-12-07T05:12:26;106.37;;;99.87;;
13849;SDS011;6995;52.618;13.488;2022-12-07T05:14:52;47.57;;;43.80;;
13849;SDS011;6995;52.618;13.488;2022-12-07T05:17:18;80.67;;;75.57;;
13849;SDS011;6995;52.618;13.488;2022-12-07T05:19:44;66.30;;;60.73;;
13849;SDS011;6995;52.618;13.488;2022-12-07T05:22:09;52.70;;;48.03;;
13849;SDS011;6995;52.618;13.488;2022-12-07T05:24:35;69.17;;;63.77;;
13849;SDS011;6995;52.618;13.488;2022-12-07T05:27:01;49.90;;;44.47;;
13849;SDS011;6995;52.618;13.488;2022-12-07T05:29:27;51.90;;;47.47;;
13849;SDS011;6995;52.618;13.488;2022-12-07T05:31:56;67.67;;;61.03;;
13849;SDS011;6995;52.618;13.488;2022-12-07T05:34:22;63.07;;;57.63;;
13849;SDS011;6995;52.618;13.488;2022-12-07T05:36:48;50.87;;;45.93;;
13849;SDS011;6995;52.618;13.488;2022-12-07T05:39:14;74.37;;;68.17;;
13849;SDS011;6995;52.618;13.488;2022-12-07T05:41:46;55.33;;;50.20;;
13849;SDS011;6995;52.618;13.488;2022-12-07T05:44:36;47.73;;;42.97;;
13849;SDS011;6995;52.618;13.488;2022-12-07T05:47:08;47.97;;;43.30;;
13849;SDS011;6995;52.618;13.488;2022-12-07T05:49:35;49.57;;;44.17;;
13849;SDS011;6995;52.618;13.488;2022-12-07T05:52:01;43.87;;;39.77;;
13849;SDS011;6995;52.618;13.488;2022-12-07T05:54:27;44.13;;;39.47;;
13849;SDS011;6995;52.618;13.488;2022-12-07T05:57:05;48.37;;;40.27;;
13849;SDS011;6995;52.618;13.488;2022-12-07T05:59:34;45.30;;;40.43;;
13849;SDS011;6995;52.618;13.488;2022-12-07T06:02:04;48.07;;;43.10;;
13849;SDS011;6995;52.618;13.488;2022-12-07T06:04:38;49.03;;;44.53;;
13849;SDS011;6995;52.618;13.488;2022-12-07T06:07:08;48.80;;;40.70;;
13849;SDS011;6995;52.618;13.488;2022-12-07T06:09:36;47.17;;;39.20;;
13849;SDS011;6995;52.618;13.488;2022-12-07T06:12:03;41.47;;;37.63;;
13849;SDS011;6995;52.618;13.488;2022-12-07T06:14:50;50.10;;;44.53;;
13849;SDS011;6995;52.618;13.488;2022-12-07T06:17:21;46.90;;;41.93;;
13849;SDS011;6995;52.618;13.488;2022-12-07T06:20:01;46.20;;;41.23;;
13849;SDS011;6995;52.618;13.488;2022-12-07T06:22:31;54.20;;;45.63;;
13849;SDS011;6995;52.618;13.488;2022-12-07T06:24:56;46.43;;;41.53;;
13849;SDS011;6995;52.618;13.488;2022-12-07T06:27:26;44.70;;;38.43;;
13849;SDS011;6995;52.618;13.488;2022-12-07T06:29:57;40.63;;;36.53;;
13849;SDS011;6995;52.618;13.488;2022-12-07T06:32:38;40.57;;;37.17;;
13849;SDS011;6995;52.618;13.488;2022-12-07T06:35:04;50.43;;;46.23;;
13849;SDS011;6995;52.618;13.488;2022-12-07T06:37:33;40.90;;;37.20;;
13849;SDS011;6995;52.618;13.488;2022-12-07T06:40:01;42.47;;;38.60;;
13849;SDS011;6995;52.618;13.488;2022-12-07T06:42:29;39.53;;;36.30;;
13849;SDS011;6995;52.618;13.488;2022-12-07T06:44:55;43.30;;;39.43;;
13849;SDS011;6995;52.618;13.488;2022-12-07T06:47:21;46.00;;;41.83;;
13849;SDS011;6995;52.618;13.488;2022-12-07T06:49:50;47.53;;;43.20;;
13849;SDS011;6995;52.618;13.488;2022-12-07T06:53:01;52.67;;;48.07;;
13849;SDS011;6995;52.618;13.488;2022-12-07T06:55:29;49.37;;;45.10;;
13849;SDS011;6995;52.618;13.488;2022-12-07T06:57:55;35.67;;;32.20;;
13849;SDS011;6995;52.618;13.488;2022-12-07T07:00:21;42.73;;;38.73;;
13849;SDS011;6995;52.618;13.488;2022-12-07T07:02:47;40.87;;;36.90;;
13849;SDS011;6995;52.618;13.488;2022-12-07T07:05:19;44.30;;;40.10;;
13849;SDS011;6995;52.618;13.488;2022-12-07T07:07:48;39.93;;;35.40;;
13849;SDS011;6995;52.618;13.488;2022-12-07T07:10:40;38.50;;;34.73;;
13849;SDS011;6995;52.618;13.488;2022-12-07T07:13:06;36.70;;;33.43;;
13849;SDS011;6995;52.618;13.488;2022-12-07T07:15:33;37.23;;;33.90;;
13849;SDS011;6995;52.618;13.488;2022-12-07T07:18:03;34.93;;;31.77;;
13849;SDS011;6995;52.618;13.488;2022-12-07T07:20:31;36.10;;;33.23;;
13849;SDS011;6995;52.618;13.488;2022-12-07T07:22:56;37.83;;;34.57;;
13849;SDS011;6995;52.618;13.488;2022-12-07T07:25:22;43.77;;;39.63;;
13849;SDS011;6995;52.618;13.488;2022-12-07T07:27:48;37.10;;;34.17;;
13849;SDS011;6995;52.618;13.488;2022-12-07T07:30:14;40.30;;;36.97;;
13849;SDS011;6995;52.618;13.488;2022-12-07T07:32:39;44.07;;;40.77;;
13849;SDS011;6995;52.618;13.488;2022-12-07T07:35:07;48.83;;;44.53;;
13849;SDS011;6995;52.618;13.488;2022-12-07T07:37:33;35.43;;;32.47;;
13849;SDS011;6995;52.618;13.488;2022-12-07T07:39:59;43.90;;;39.70;;
13849;SDS011;6995;52.618;13.488;2022-12-07T07:42:25;29.27;;;27.33;;
13849;SDS011;6995;52.618;13.488;2022-12-07T07:44:53;31.20;;;28.50;;
13849;SDS011;6995;52.618;13.488;2022-12-07T07:47:19;37.57;;;34.23;;
13849;SDS011;6995;52.618;13.488;2022-12-07T07:49:48;37.67;;;34.53;;
13849;SDS011;6995;52.618;13.488;2022-12-07T07:52:13;39.97;;;36.97;;
13849;SDS011;6995;52.618;13.488;2022-12-07T07:54:39;31.67;;;29.50;;
13849;SDS011;6995;52.618;13.488;2022-12-07T07:57:05;39.33;;;36.37;;
13849;SDS011;6995;52.618;13.488;2022-12-07T07:59:30;39.43;;;36.87;;
13849;SDS011;6995;52.618;13.488;2022-12-07T08:01:56;34.33;;;32.03;;
13849;SDS011;6995;52.618;13.488;2022-12-07T08:04:42;47.03;;;42.90;;
13849;SDS011;6995;52.618;13.488;2022-12-07T08:07:13;33.03;;;30.73;;
13849;SDS011;6995;52.618;13.488;2022-12-07T08:09:40;34.53;;;30.83;;
13849;SDS011;6995;52.618;13.488;2022-12-07T08:12:06;34.37;;;32.23;;
13849;SDS011;6995;52.618;13.488;2022-12-07T08:14:32;31.03;;;29.13;;
13849;SDS011;6995;52.618;13.488;2022-12-07T08:16:58;27.40;;;25.90;;
13849;SDS011;6995;52.618;13.488;2022-12-07T08:19:24;28.53;;;26.77;;
13849;SDS011;6995;52.618;13.488;2022-12-07T08:21:50;31.77;;;29.93;;
13849;SDS011;6995;52.618;13.488;2022-12-07T08:24:16;33.03;;;31.07;;
13849;SDS011;6995;52.618;13.488;2022-12-07T08:26:42;27.63;;;25.93;;
13849;SDS011;6995;52.618;13.488;2022-12-07T08:29:08;39.47;;;37.17;;
13849;SDS011;6995;52.618;13.488;2022-12-07T08:31:34;42.87;;;40.60;;
13849;SDS011;6995;52.618;13.488;2022-12-07T08:34:00;40.07;;;37.70;;
13849;SDS011;6995;52.618;13.488;2022-12-07T08:36:26;31.30;;;29.40;;
13849;SDS011;6995;52.618;13.488;2022-12-07T08:38:51;27.67;;;26.10;;
13849;SDS011;6995;52.618;13.488;2022-12-07T08:41:17;43.43;;;40.63;;
13849;SDS011;6995;52.618;13.488;2022-12-07T08:43:43;33.27;;;31.57;;
13849;SDS011;6995;52.618;13.488;2022-12-07T08:46:10;31.57;;;29.70;;
13849;SDS011;6995;52.618;13.488;2022-12-07T08:49:27;26.77;;;25.07;;
13849;SDS011;6995;52.618;13.488;2022-12-07T08:51:30;25.50;;;24.20;;
13849;SDS011;6995;52.618;13.488;2022-12-07T08:53:55;26.80;;;25.20;;
13849;SDS011;6995;52.618;13.488;2022-12-07T08:56:25;29.40;;;27.90;;
13849;SDS011;6995;52.618;13.488;2022-12-07T08:58:51;28.27;;;26.63;;
13849;SDS011;6995;52.618;13.488;2022-12-07T09:01:18;26.53;;;25.03;;
13849;SDS011;6995;52.618;13.488;2022-12-07T09:03:43;29.27;;;27.67;;
13849;SDS011;6995;52.618;13.488;2022-12-07T09:06:09;30.97;;;29.23;;
13849;SDS011;6995;52.618;13.488;2022-12-07T09:08:36;30.30;;;28.80;;
13849;SDS011;6995;52.618;13.488;2022-12-07T09:11:09;28.23;;;26.83;;
13849;SDS011;6995;52.618;13.488;2022-12-07T09:13:35;26.27;;;24.77;;
13849;SDS011;6995;52.618;13.488;2022-12-07T09:16:01;25.27;;;23.97;;
13849;SDS011;6995;52.618;13.488;2022-12-07T09:18:32;30.57;;;28.97;;
13849;SDS011;6995;52.618;13.488;2022-12-07T09:20:58;28.47;;;27.03;;
13849;SDS011;6995;52.618;13.488;2022-12-07T09:23:26;27.80;;;26.40;;
13849;SDS011;6995;52.618;13.488;2022-12-07T09:25:52;28.07;;;26.77;;
13849;SDS011;6995;52.618;13.488;2022-12-07T09:28:18;27.27;;;25.97;;
13849;SDS011;6995;52.618;13.488;2022-12-07T09:30:47;27.33;;;26.03;;
13849;SDS011;6995;52.618;13.488;2022-12-07T09:33:22;24.50;;;23.23;;
13849;SDS011;6995;52.618;13.488;2022-12-07T09:35:57;28.17;;;26.77;;
13849;SDS011;6995;52.618;13.488;2022-12-07T09:38:23;25.27;;;23.87;;
13849;SDS011;6995;52.618;13.488;2022-12-07T09:40:51;24.50;;;23.33;;
13849;SDS011;6995;52.618;13.488;2022-12-07T09:43:20;26.20;;;24.90;;
13849;SDS011;6995;52.618;13.488;2022-12-07T09:45:53;30.60;;;29.20;;
13849;SDS011;6995;52.618;13.488;2022-12-07T09:48:22;25.70;;;24.50;;
13849;SDS011;6995;52.618;13.488;2022-12-07T09:50:55;23.63;;;22.53;;
13849;SDS011;6995;52.618;13.488;2022-12-07T09:53:27;25.50;;;24.40;;
13849;SDS011;6995;52.618;13.488;2022-12-07T09:55:56;30.67;;;29.20;;
13849;SDS011;6995;52.618;13.488;2022-12-07T09:58:25;28.03;;;26.73;;
13849;SDS011;6995;52.618;13.488;2022-12-07T10:00:55;29.37;;;27.97;;
13849;SDS011;6995;52.618;13.488;2022-12-07T10:03:27;26.67;;;25.23;;
13849;SDS011;6995;52.618;13.488;2022-12-07T10:05:54;23.77;;;22.67;;
13849;SDS011;6995;52.618;13.488;2022-12-07T10:08:20;24.00;;;22.80;;
13849;SDS011;6995;52.618;13.488;2022-12-07T10:10:49;22.33;;;21.37;;
13849;SDS011;6995;52.618;13.488;2022-12-07T10:13:33;25.20;;;24.10;;
13849;SDS011;6995;52.618;13.488;2022-12-07T10:15:59;22.63;;;21.63;;
13849;SDS011;6995;52.618;13.488;2022-12-07T10:18:27;26.73;;;25.40;;
13849;SDS011;6995;52.618;13.488;2022-12-07T10:21:10;26.83;;;25.63;;
13849;SDS011;6995;52.618;13.488;2022-12-07T10:23:58;25.13;;;24.03;;
13849;SDS011;6995;52.618;13.488;2022-12-07T10:26:34;23.93;;;22.73;;
13849;SDS011;6995;52.618;13.488;2022-12-07T10:29:20;24.80;;;23.50;;
13849;SDS011;6995;52.618;13.488;2022-12-07T10:32:02;23.30;;;22.20;;
13849;SDS011;6995;52.618;13.488;2022-12-07T10:34:51;27.40;;;26.00;;
13849;SDS011;6995;52.618;13.488;2022-12-07T10:37:54;24.23;;;23.03;;
13849;SDS011;6995;52.618;13.488;2022-12-07T10:40:29;27.87;;;26.57;;
13849;SDS011;6995;52.618;13.488;2022-12-07T10:43:00;24.77;;;23.50;;
13849;SDS011;6995;52.618;13.488;2022-12-07T10:45:28;24.27;;;23.27;;
13849;SDS011;6995;52.618;13.488;2022-12-07T11:10:09;27.37;;;26.00;;
13849;SDS011;6995;52.618;13.488;2022-12-07T11:12:54;25.53;;;24.43;;
13849;SDS011;6995;52.618;13.488;2022-12-07T11:24:09;24.87;;;23.63;;
13849;SDS011;6995;52.618;13.488;2022-12-07T11:29:59;32.17;;;30.67;;
13849;SDS011;6995;52.618;13.488;2022-12-07T11:38:41;26.27;;;24.97;;
13849;SDS011;6995;52.618;13.488;2022-12-07T11:41:15;31.07;;;29.37;;
13849;SDS011;6995;52.618;13.488;2022-12-07T11:46:34;30.20;;;27.90;;
13849;SDS011;6995;52.618;13.488;2022-12-07T11:49:12;25.00;;;23.70;;
13849;SDS011;6995;52.618;13.488;2022-12-07T11:51:43;25.57;;;24.27;;
13849;SDS011;6995;52.618;13.488;2022-12-07T11:54:19;28.53;;;26.93;;
13849;SDS011;6995;52.618;13.488;2022-12-07T11:56:49;30.57;;;28.97;;
13849;SDS011;6995;52.618;13.488;2022-12-07T11:59:21;26.50;;;25.30;;
13849;SDS011;6995;52.618;13.488;2022-12-07T12:01:56;25.37;;;24.17;;
13849;SDS011;6995;52.618;13.488;2022-12-07T12:04:28;27.17;;;25.40;;
13849;SDS011;6995;52.618;13.488;2022-12-07T12:07:10;26.90;;;25.43;;
13849;SDS011;6995;52.618;13.488;2022-12-07T12:09:48;27.67;;;26.33;;
13849;SDS011;6995;52.618;13.488;2022-12-07T12:12:31;31.00;;;29.60;;
13849;SDS011;6995;52.618;13.488;2022-12-07T12:21:15;31.07;;;29.27;;
13849;SDS011;6995;52.618;13.488;2022-12-07T12:23:51;26.87;;;25.47;;
13849;SDS011;6995;52.618;13.488;2022-12-07T12:26:35;26.33;;;24.83;;
13849;SDS011;6995;52.618;13.488;2022-12-07T12:38:21;27.17;;;25.83;;
13849;SDS011;6995;52.618;13.488;2022-12-07T12:40:55;27.63;;;26.20;;
13849;SDS011;6995;52.618;13.488;2022-12-07T12:54:19;23.97;;;22.73;;
13849;SDS011;6995;52.618;13.488;2022-12-07T12:56:48;26.53;;;25.03;;
13849;SDS011;6995;52.618;13.488;2022-12-07T13:07:49;31.23;;;29.23;;
13849;SDS011;6995;52.618;13.488;2022-12-07T13:10:24;34.30;;;32.10;;
13849;SDS011;6995;52.618;13.488;2022-12-07T13:15:38;25.87;;;24.57;;
13849;SDS011;6995;52.618;13.488;2022-12-07T13:26:35;29.73;;;27.87;;
13849;SDS011;6995;52.618;13.488;2022-12-07T13:40:17;29.87;;;28.37;;
13849;SDS011;6995;52.618;13.488;2022-12-07T13:42:45;31.97;;;30.00;;
13849;SDS011;6995;52.618;13.488;2022-12-07T13:45:41;31.87;;;30.07;;
13849;SDS011;6995;52.618;13.488;2022-12-07T13:51:12;29.23;;;27.53;;
13849;SDS011;6995;52.618;13.488;2022-12-07T13:53:52;27.57;;;26.23;;
13849;SDS011;6995;52.618;13.488;2022-12-07T13:56:35;24.90;;;23.60;;
13849;SDS011;6995;52.618;13.488;2022-12-07T13:59:22;29.70;;;28.10;;
13849;SDS011;6995;52.618;13.488;2022-12-07T14:01:58;29.77;;;27.67;;
13849;SDS011;6995;52.618;13.488;2022-12-07T14:06:56;29.37;;;27.67;;
13849;SDS011;6995;52.618;13.488;2022-12-07T14:09:27;27.73;;;26.40;;
13849;SDS011;6995;52.618;13.488;2022-12-07T14:11:54;25.57;;;24.07;;
13849;SDS011;6995;52.618;13.488;2022-12-07T14:14:22;32.57;;;30.67;;
13849;SDS011;6995;52.618;13.488;2022-12-07T14:24:59;31.33;;;28.83;;
13849;SDS011;6995;52.618;13.488;2022-12-07T14:27:38;31.27;;;29.33;;
13849;SDS011;6995;52.618;13.488;2022-12-07T14:30:04;31.67;;;29.83;;
13849;SDS011;6995;52.618;13.488;2022-12-07T14:32:31;34.57;;;32.63;;
13849;SDS011;6995;52.618;13.488;2022-12-07T14:37:37;24.10;;;22.67;;
13849;SDS011;6995;52.618;13.488;2022-12-07T14:40:04;30.03;;;28.00;;
13849;SDS011;6995;52.618;13.488;2022-12-07T14:42:31;28.10;;;26.67;;
13849;SDS011;6995;52.618;13.488;2022-12-07T14:45:00;30.03;;;28.43;;
13849;SDS011;6995;52.618;13.488;2022-12-07T14:47:26;34.30;;;32.43;;
13849;SDS011;6995;52.618;13.488;2022-12-07T14:49:52;35.43;;;33.33;;
13849;SDS011;6995;52.618;13.488;2022-12-07T14:52:23;37.17;;;35.13;;
13849;SDS011;6995;52.618;13.488;2022-12-07T14:54:52;32.33;;;30.53;;
13849;SDS011;6995;52.618;13.488;2022-12-07T14:57:20;24.27;;;22.97;;
13849;SDS011;6995;52.618;13.488;2022-12-07T14:59:45;30.23;;;28.73;;
13849;SDS011;6995;52.618;13.488;2022-12-07T15:02:12;30.80;;;29.10;;
13849;SDS011;6995;52.618;13.488;2022-12-07T15:04:39;29.93;;;28.07;;
13849;SDS011;6995;52.618;13.488;2022-12-07T15:07:18;27.77;;;26.00;;
13849;SDS011;6995;52.618;13.488;2022-12-07T15:09:45;27.63;;;25.73;;
13849;SDS011;6995;52.618;13.488;2022-12-07T15:12:11;25.73;;;23.93;;
13849;SDS011;6995;52.618;13.488;2022-12-07T15:14:36;27.50;;;26.03;;
13849;SDS011;6995;52.618;13.488;2022-12-07T15:17:02;28.53;;;27.10;;
13849;SDS011;6995;52.618;13.488;2022-12-07T15:19:28;26.60;;;24.90;;
13849;SDS011;6995;52.618;13.488;2022-12-07T15:21:54;28.93;;;27.50;;
13849;SDS011;6995;52.618;13.488;2022-12-07T15:24:20;22.83;;;21.57;;
13849;SDS011;6995;52.618;13.488;2022-12-07T15:26:46;28.53;;;26.70;;
13849;SDS011;6995;52.618;13.488;2022-12-07T15:29:13;27.47;;;25.67;;
13849;SDS011;6995;52.618;13.488;2022-12-07T15:31:41;32.30;;;30.90;;
13849;SDS011;6995;52.618;13.488;2022-12-07T15:34:07;33.27;;;31.60;;
13849;SDS011;6995;52.618;13.488;2022-12-07T15:36:33;47.10;;;44.57;;
13849;SDS011;6995;52.618;13.488;2022-12-07T15:38:59;32.07;;;30.00;;
13849;SDS011;6995;52.618;13.488;2022-12-07T15:41:25;37.70;;;35.87;;
13849;SDS011;6995;52.618;13.488;2022-12-07T15:43:51;30.37;;;28.67;;
13849;SDS011;6995;52.618;13.488;2022-12-07T15:46:36;28.77;;;26.83;;
13849;SDS011;6995;52.618;13.488;2022-12-07T15:49:08;24.47;;;23.00;;
13849;SDS011;6995;52.618;13.488;2022-12-07T15:51:40;26.93;;;25.63;;
13849;SDS011;6995;52.618;13.488;2022-12-07T15:54:08;28.90;;;27.33;;
13849;SDS011;6995;52.618;13.488;2022-12-07T15:56:44;31.60;;;29.60;;
13849;SDS011;6995;52.618;13.488;2022-12-07T15:59:13;26.67;;;25.27;;
13849;SDS011;6995;52.618;13.488;2022-12-07T16:01:39;43.27;;;40.93;;
13849;SDS011;6995;52.618;13.488;2022-12-07T16:04:05;26.87;;;25.63;;
13849;SDS011;6995;52.618;13.488;2022-12-07T16:06:31;26.33;;;25.10;;
13849;SDS011;6995;52.618;13.488;2022-12-07T16:08:56;25.53;;;24.33;;
13849;SDS011;6995;52.618;13.488;2022-12-07T16:11:22;23.83;;;22.73;;
13849;SDS011;6995;52.618;13.488;2022-12-07T16:13:48;24.43;;;22.93;;
13849;SDS011;6995;52.618;13.488;2022-12-07T16:16:15;24.03;;;22.93;;
13849;SDS011;6995;52.618;13.488;2022-12-07T16:18:43;29.47;;;27.97;;
13849;SDS011;6995;52.618;13.488;2022-12-07T16:21:10;25.77;;;24.47;;
13849;SDS011;6995;52.618;13.488;2022-12-07T16:23:36;24.97;;;23.80;;
13849;SDS011;6995;52.618;13.488;2022-12-07T16:26:05;25.27;;;24.03;;
13849;SDS011;6995;52.618;13.488;2022-12-07T16:28:32;22.83;;;21.40;;
13849;SDS011;6995;52.618;13.488;2022-12-07T16:31:05;25.63;;;24.40;;
13849;SDS011;6995;52.618;13.488;2022-12-07T16:33:40;25.23;;;23.73;;
13849;SDS011;6995;52.618;13.488;2022-12-07T16:36:08;24.10;;;22.80;;
13849;SDS011;6995;52.618;13.488;2022-12-07T16:38:35;29.07;;;27.37;;
13849;SDS011;6995;52.618;13.488;2022-12-07T16:41:02;25.67;;;24.07;;
13849;SDS011;6995;52.618;13.488;2022-12-07T16:43:29;23.33;;;22.13;;
13849;SDS011;6995;52.618;13.488;2022-12-07T16:45:54;28.17;;;26.40;;
13849;SDS011;6995;52.618;13.488;2022-12-07T16:48:20;27.53;;;26.03;;
13849;SDS011;6995;52.618;13.488;2022-12-07T16:50:46;25.07;;;23.77;;
13849;SDS011;6995;52.618;13.488;2022-12-07T16:53:12;25.43;;;23.93;;
13849;SDS011;6995;52.618;13.488;2022-12-07T16:55:39;27.00;;;25.37;;
13849;SDS011;6995;52.618;13.488;2022-12-07T16:58:07;24.90;;;23.40;;
13849;SDS011;6995;52.618;13.488;2022-12-07T17:00:33;25.57;;;24.30;;
13849;SDS011;6995;52.618;13.488;2022-12-07T17:02:59;25.27;;;23.80;;
13849;SDS011;6995;52.618;13.488;2022-12-07T17:05:26;27.67;;;26.07;;
13849;SDS011;6995;52.618;13.488;2022-12-07T17:07:53;26.97;;;25.70;;
13849;SDS011;6995;52.618;13.488;2022-12-07T17:10:19;26.87;;;24.73;;
13849;SDS011;6995;52.618;13.488;2022-12-07T17:12:44;26.33;;;24.80;;
13849;SDS011;6995;52.618;13.488;2022-12-07T17:15:10;27.67;;;26.13;;
13849;SDS011;6995;52.618;13.488;2022-12-07T17:17:45;25.63;;;24.07;;